createdAt,value
2017-12-17T00:01:59.929Z,17.83
2017-12-17T00:04:28.100Z,16.83
2017-12-17T00:06:56.357Z,17.37
2017-12-17T00:09:24.816Z,16.37
2017-12-17T00:11:53.624Z,15.43
2017-12-17T00:14:22.067Z,15.53
2017-12-17T00:16:54.287Z,16.47
2017-12-17T00:19:21.971Z,15.93
2017-12-17T00:21:49.726Z,15.13
2017-12-17T00:24:17.443Z,14.47
2017-12-17T00:26:46.259Z,18.20
2017-12-17T00:29:14.798Z,16.70
2017-12-17T00:31:42.914Z,16.93
2017-12-17T00:34:11.475Z,14.80
2017-12-17T00:36:40.272Z,16.70
2017-12-17T00:39:08.765Z,13.80
2017-12-17T00:41:37.348Z,12.40
2017-12-17T00:44:05.713Z,15.83
2017-12-17T00:46:34.131Z,16.70
2017-12-17T00:49:02.639Z,18.30
2017-12-17T00:51:31.329Z,18.50
2017-12-17T00:53:59.750Z,20.20
2017-12-17T00:56:28.235Z,19.10
2017-12-17T00:58:56.776Z,17.80
2017-12-17T01:01:26.020Z,18.20
2017-12-17T01:03:54.524Z,16.37
2017-12-17T01:06:22.923Z,17.83
2017-12-17T01:08:51.538Z,18.00
2017-12-17T01:11:19.917Z,16.80
2017-12-17T01:13:48.275Z,17.67
2017-12-17T01:16:17.106Z,16.10
2017-12-17T01:18:45.371Z,18.77
2017-12-17T01:21:13.804Z,19.83
2017-12-17T01:23:42.232Z,21.03
2017-12-17T01:26:10.307Z,22.63
2017-12-17T01:28:38.992Z,21.37
2017-12-17T01:31:07.374Z,21.93
2017-12-17T01:33:35.928Z,26.80
2017-12-17T01:36:04.114Z,28.70
2017-12-17T01:38:32.497Z,25.13
2017-12-17T01:41:00.266Z,26.43
2017-12-17T01:43:28.318Z,25.40
2017-12-17T01:45:56.026Z,27.40
2017-12-17T01:48:23.747Z,26.90
2017-12-17T01:50:51.770Z,26.83
2017-12-17T01:53:19.823Z,26.97
2017-12-17T01:55:47.670Z,25.00
2017-12-17T01:58:16.303Z,27.43
2017-12-17T02:00:44.570Z,25.73
2017-12-17T02:03:13.003Z,25.47
2017-12-17T02:05:40.721Z,25.33
2017-12-17T02:08:09.516Z,27.30
2017-12-17T02:10:38.372Z,25.57
2017-12-17T02:13:06.100Z,27.20
2017-12-17T02:15:34.136Z,25.47
2017-12-17T02:18:02.940Z,26.73
2017-12-17T02:20:31.438Z,27.67
2017-12-17T02:22:59.212Z,28.97
2017-12-17T02:25:27.014Z,28.43
2017-12-17T02:27:54.740Z,27.83
2017-12-17T02:30:22.472Z,27.60
2017-12-17T02:32:50.176Z,25.50
2017-12-17T02:35:17.889Z,26.50
2017-12-17T02:37:46.457Z,28.67
2017-12-17T02:40:15.084Z,25.23
2017-12-17T02:42:42.886Z,26.67
2017-12-17T02:45:10.764Z,26.93
2017-12-17T02:47:38.455Z,23.93
2017-12-17T02:50:06.162Z,25.30
2017-12-17T02:52:33.858Z,29.77
2017-12-17T02:55:01.596Z,30.27
2017-12-17T02:57:29.344Z,29.13
2017-12-17T02:59:57.104Z,29.20
2017-12-17T03:02:25.058Z,27.87
2017-12-17T03:04:52.760Z,25.67
2017-12-17T03:07:20.580Z,28.63
2017-12-17T03:09:48.378Z,31.93
2017-12-17T03:12:16.129Z,27.10
2017-12-17T03:14:43.956Z,24.83
2017-12-17T03:17:12.494Z,27.23
2017-12-17T03:19:40.526Z,26.50
2017-12-17T03:22:08.845Z,26.87
2017-12-17T03:24:36.550Z,25.20
2017-12-17T03:27:04.267Z,23.90
2017-12-17T03:29:32.064Z,25.93
2017-12-17T03:32:00.695Z,22.20
2017-12-17T03:34:28.387Z,21.70
2017-12-17T03:36:56.119Z,23.90
2017-12-17T03:39:23.812Z,23.70
2017-12-17T03:41:52.368Z,25.20
2017-12-17T03:44:20.063Z,23.43
2017-12-17T03:46:48.527Z,22.87
2017-12-17T03:49:16.245Z,22.37
2017-12-17T03:51:44.122Z,23.43
2017-12-17T03:54:11.960Z,21.43
2017-12-17T03:56:40.503Z,21.83
2017-12-17T03:59:08.220Z,21.87
2017-12-17T04:01:35.907Z,22.10
2017-12-17T04:04:03.599Z,20.93
2017-12-17T04:06:32.285Z,21.73
2017-12-17T04:09:00.606Z,19.67
2017-12-17T04:11:28.378Z,20.70
2017-12-17T04:13:56.068Z,19.73
2017-12-17T04:16:24.224Z,23.57
2017-12-17T04:18:52.580Z,22.77
2017-12-17T04:21:20.484Z,24.03
2017-12-17T04:23:48.530Z,25.37
2017-12-17T04:26:16.426Z,23.93
2017-12-17T04:28:44.122Z,23.93
2017-12-17T04:31:13.407Z,25.17
2017-12-17T04:33:42.251Z,24.77
2017-12-17T04:36:10.052Z,23.27
2017-12-17T04:38:38.876Z,25.07
2017-12-17T04:41:06.632Z,24.33
2017-12-17T04:43:34.326Z,24.37
2017-12-17T04:46:02.053Z,23.50
2017-12-17T04:48:30.248Z,21.97
2017-12-17T04:50:58.321Z,24.00
2017-12-17T04:53:26.673Z,24.33
2017-12-17T04:55:54.711Z,23.07
2017-12-17T04:58:22.427Z,25.40
2017-12-17T05:00:50.164Z,25.40
2017-12-17T05:03:18.653Z,26.00
2017-12-17T05:05:46.339Z,26.33
2017-12-17T05:08:14.779Z,23.63
2017-12-17T05:10:43.258Z,25.03
2017-12-17T05:13:12.051Z,26.80
2017-12-17T05:15:40.155Z,25.60
2017-12-17T05:18:08.181Z,26.10
2017-12-17T05:20:35.978Z,24.03
2017-12-17T05:23:03.669Z,23.87
2017-12-17T05:25:31.367Z,25.30
2017-12-17T05:28:00.552Z,25.10
2017-12-17T05:30:28.364Z,25.37
2017-12-17T05:32:56.092Z,25.80
2017-12-17T05:35:24.558Z,27.73
2017-12-17T05:37:52.606Z,25.30
2017-12-17T05:40:20.976Z,23.13
2017-12-17T05:42:48.850Z,25.40
2017-12-17T05:45:17.397Z,24.03
2017-12-17T05:47:45.114Z,25.70
2017-12-17T05:50:12.945Z,24.30
2017-12-17T05:52:40.656Z,25.97
2017-12-17T05:55:09.135Z,24.23
2017-12-17T05:57:37.690Z,24.00
2017-12-17T06:00:05.368Z,24.67
2017-12-17T06:02:33.427Z,24.30
2017-12-17T06:05:01.472Z,23.93
2017-12-17T06:07:29.246Z,22.50
2017-12-17T06:09:57.290Z,23.50
2017-12-17T06:12:24.984Z,23.33
2017-12-17T06:14:52.691Z,22.70
2017-12-17T06:17:21.487Z,23.00
2017-12-17T06:19:49.536Z,24.70
2017-12-17T06:22:18.019Z,24.67
2017-12-17T06:24:46.637Z,24.60
2017-12-17T06:27:14.744Z,21.90
2017-12-17T06:29:42.458Z,23.80
2017-12-17T06:32:10.236Z,24.80
2017-12-17T06:34:37.947Z,24.67
2017-12-17T06:37:06.136Z,24.13
2017-12-17T06:39:34.981Z,24.60
2017-12-17T06:42:03.135Z,24.00
2017-12-17T06:44:30.969Z,23.50
2017-12-17T06:46:59.682Z,23.93
2017-12-17T06:49:28.065Z,23.90
2017-12-17T06:51:56.092Z,24.67
2017-12-17T06:54:24.567Z,24.90
2017-12-17T06:56:53.707Z,25.10
2017-12-17T06:59:21.419Z,24.53
2017-12-17T07:01:49.456Z,24.13
2017-12-17T07:04:17.201Z,24.43
2017-12-17T07:06:44.906Z,25.53
2017-12-17T07:09:13.012Z,27.10
2017-12-17T07:11:40.780Z,24.90
2017-12-17T07:14:08.500Z,27.63
2017-12-17T07:16:36.463Z,27.20
2017-12-17T07:19:04.193Z,25.23
2017-12-17T07:21:32.252Z,25.47
2017-12-17T07:24:00.648Z,28.43
2017-12-17T07:26:28.503Z,24.93
2017-12-17T07:28:56.666Z,27.50
2017-12-17T07:31:24.811Z,26.20
2017-12-17T07:33:53.642Z,27.60
2017-12-17T07:36:22.053Z,27.60
2017-12-17T07:38:50.167Z,27.57
2017-12-17T07:41:17.863Z,28.07
2017-12-17T07:43:45.921Z,28.23
2017-12-17T07:46:14.455Z,27.93
2017-12-17T07:48:42.176Z,29.77
2017-12-17T07:51:10.230Z,28.80
2017-12-17T07:53:38.529Z,29.13
2017-12-17T07:56:06.919Z,27.87
2017-12-17T07:58:34.659Z,29.73
2017-12-17T08:01:03.016Z,29.37
2017-12-17T08:03:30.727Z,30.80
2017-12-17T08:05:59.103Z,28.53
2017-12-17T08:08:27.928Z,30.17
2017-12-17T08:10:56.471Z,29.10
2017-12-17T08:13:28.073Z,28.23
2017-12-17T08:15:55.788Z,28.67
2017-12-17T08:18:23.502Z,30.33
2017-12-17T08:20:51.195Z,29.20
2017-12-17T08:23:19.719Z,29.20
2017-12-17T08:25:47.617Z,29.93
2017-12-17T08:28:15.436Z,27.90
2017-12-17T08:30:43.163Z,26.83
2017-12-17T08:33:11.211Z,28.90
2017-12-17T08:35:39.656Z,28.57
2017-12-17T08:38:07.529Z,28.33
2017-12-17T08:40:35.250Z,26.40
2017-12-17T08:43:03.401Z,29.60
2017-12-17T08:45:31.433Z,28.80
2017-12-17T08:47:59.963Z,28.10
2017-12-17T08:50:27.673Z,28.77
2017-12-17T08:52:55.725Z,28.20
2017-12-17T08:55:23.764Z,26.80
2017-12-17T08:57:51.522Z,29.40
2017-12-17T09:00:19.284Z,24.97
2017-12-17T09:02:47.021Z,28.23
2017-12-17T09:05:16.050Z,27.23
2017-12-17T09:07:44.146Z,26.77
2017-12-17T09:10:12.516Z,26.27
2017-12-17T09:12:40.563Z,26.80
2017-12-17T09:15:08.294Z,26.63
2017-12-17T09:17:36.902Z,25.80
2017-12-17T09:20:04.600Z,27.13
2017-12-17T09:22:32.961Z,27.77
2017-12-17T09:25:00.650Z,25.73
2017-12-17T09:27:29.126Z,27.90
2017-12-17T09:29:56.834Z,25.37
2017-12-17T09:32:24.575Z,25.93
2017-12-17T09:34:53.058Z,25.17
2017-12-17T09:37:21.091Z,26.27
2017-12-17T09:39:48.939Z,25.70
2017-12-17T09:42:17.096Z,25.50
2017-12-17T09:44:44.790Z,25.90
2017-12-17T09:47:13.040Z,24.00
2017-12-17T09:49:40.762Z,26.17
2017-12-17T09:52:09.531Z,22.53
2017-12-17T09:54:37.255Z,25.37
2017-12-17T09:57:05.309Z,23.40
2017-12-17T09:59:33.336Z,23.93
2017-12-17T10:02:01.147Z,22.67
2017-12-17T10:04:28.874Z,23.87
2017-12-17T10:06:56.598Z,23.27
2017-12-17T10:09:24.684Z,23.63
2017-12-17T10:11:52.383Z,22.70
2017-12-17T10:14:21.247Z,22.00
2017-12-17T10:16:49.629Z,22.60
2017-12-17T10:19:17.821Z,19.43
2017-12-17T10:21:46.977Z,21.40
2017-12-17T10:24:14.676Z,20.47
2017-12-17T10:26:43.159Z,22.17
2017-12-17T10:29:11.882Z,20.10
2017-12-17T10:31:40.299Z,21.53
2017-12-17T10:34:08.201Z,20.03
2017-12-17T10:36:37.003Z,19.57
2017-12-17T10:39:05.099Z,19.70
2017-12-17T10:41:33.133Z,21.10
2017-12-17T10:44:01.183Z,22.63
2017-12-17T10:46:29.272Z,21.90
2017-12-17T10:48:57.370Z,21.03
2017-12-17T10:51:25.448Z,22.70
2017-12-17T10:53:53.930Z,21.23
2017-12-17T10:56:22.807Z,23.40
2017-12-17T10:58:50.567Z,22.90
2017-12-17T11:01:18.435Z,22.20
2017-12-17T11:03:46.840Z,21.13
2017-12-17T11:06:14.939Z,21.60
2017-12-17T11:08:43.752Z,22.63
2017-12-17T11:11:11.936Z,21.77
2017-12-17T11:13:40.177Z,20.10
2017-12-17T11:16:08.989Z,20.23
2017-12-17T11:18:37.095Z,21.57
2017-12-17T11:21:05.162Z,19.40
2017-12-17T11:23:33.012Z,19.40
2017-12-17T11:26:01.543Z,19.53
2017-12-17T11:28:29.282Z,18.40
2017-12-17T11:30:57.379Z,19.63
2017-12-17T11:33:26.578Z,19.93
2017-12-17T11:35:55.749Z,18.83
2017-12-17T11:38:23.456Z,17.90
2017-12-17T11:40:52.623Z,17.93
2017-12-17T11:43:20.327Z,17.37
2017-12-17T11:45:48.542Z,17.00
2017-12-17T11:48:16.255Z,17.57
2017-12-17T11:50:44.903Z,16.23
2017-12-17T11:53:12.979Z,18.53
2017-12-17T11:55:41.025Z,19.00
2017-12-17T11:58:09.099Z,20.30
2017-12-17T12:00:37.141Z,20.63
2017-12-17T12:03:04.848Z,22.73
2017-12-17T12:05:33.229Z,19.13
2017-12-17T12:08:01.056Z,19.00
2017-12-17T12:10:29.269Z,18.70
2017-12-17T12:12:57.356Z,17.43
2017-12-17T12:15:26.165Z,18.30
2017-12-17T12:17:54.148Z,17.53
2017-12-17T12:20:21.852Z,17.00
2017-12-17T12:22:49.575Z,16.67
2017-12-17T12:25:17.588Z,16.13
2017-12-17T12:27:45.360Z,14.33
2017-12-17T12:30:13.403Z,14.70
2017-12-17T12:32:41.145Z,14.37
2017-12-17T12:35:09.193Z,14.83
2017-12-17T12:37:36.923Z,15.60
2017-12-17T12:40:04.615Z,14.37
2017-12-17T12:42:33.221Z,16.43
2017-12-17T12:45:01.458Z,16.90
2017-12-17T12:47:30.619Z,17.37
2017-12-17T12:49:58.368Z,17.80
2017-12-17T12:52:26.759Z,16.00
2017-12-17T12:54:54.835Z,17.00
2017-12-17T12:57:23.077Z,16.20
2017-12-17T12:59:51.130Z,16.60
2017-12-17T13:02:18.951Z,17.00
2017-12-17T13:04:47.664Z,16.40
2017-12-17T13:07:16.055Z,17.63
2017-12-17T13:09:43.791Z,17.70
2017-12-17T13:12:11.871Z,17.57
2017-12-17T13:14:40.347Z,18.13
2017-12-17T13:17:09.181Z,16.07
2017-12-17T13:19:37.274Z,17.47
2017-12-17T13:22:05.202Z,17.03
2017-12-17T13:24:32.913Z,19.03
2017-12-17T13:27:01.053Z,17.00
2017-12-17T13:29:29.174Z,17.20
2017-12-17T13:31:57.708Z,16.73
2017-12-17T13:34:25.790Z,16.20
2017-12-17T13:36:54.645Z,16.30
2017-12-17T13:39:22.366Z,17.30
2017-12-17T13:41:50.056Z,17.23
2017-12-17T13:44:18.587Z,18.13
2017-12-17T13:46:46.840Z,18.13
2017-12-17T13:49:14.576Z,16.37
2017-12-17T13:51:43.389Z,18.20
2017-12-17T13:54:11.464Z,17.73
2017-12-17T13:56:39.482Z,17.40
2017-12-17T13:59:07.214Z,18.43
2017-12-17T14:01:35.114Z,19.70
2017-12-17T14:04:02.855Z,18.50
2017-12-17T14:06:30.656Z,18.47
2017-12-17T14:08:59.283Z,18.83
2017-12-17T14:11:27.455Z,18.63
2017-12-17T14:13:55.670Z,17.90
2017-12-17T14:16:23.756Z,18.37
2017-12-17T14:18:52.374Z,17.13
2017-12-17T14:21:20.801Z,19.00
2017-12-17T14:23:49.126Z,19.40
2017-12-17T14:26:16.896Z,19.90
2017-12-17T14:28:44.627Z,21.43
2017-12-17T14:31:13.552Z,20.13
2017-12-17T14:33:41.584Z,21.97
2017-12-17T14:36:10.737Z,20.13
2017-12-17T14:38:49.264Z,22.10
2017-12-17T14:41:16.982Z,21.33
2017-12-17T14:43:44.705Z,22.10
2017-12-17T14:46:13.134Z,22.10
2017-12-17T14:48:40.904Z,22.50
2017-12-17T14:51:08.812Z,22.60
2017-12-17T14:53:36.572Z,23.57
2017-12-17T14:56:04.329Z,21.37
2017-12-17T14:58:32.082Z,22.97
2017-12-17T15:00:59.826Z,21.00
2017-12-17T15:03:27.569Z,22.43
2017-12-17T15:05:55.510Z,22.27
2017-12-17T15:08:23.988Z,21.20
2017-12-17T15:10:52.564Z,23.53
2017-12-17T15:13:21.120Z,22.30
2017-12-17T15:15:48.812Z,22.60
2017-12-17T15:18:17.310Z,21.80
2017-12-17T15:20:45.812Z,21.10
2017-12-17T15:23:13.577Z,21.67
2017-12-17T15:25:41.428Z,20.33
2017-12-17T15:28:09.235Z,20.30
2017-12-17T15:30:37.068Z,19.20
2017-12-17T15:33:04.763Z,20.27
2017-12-17T15:35:32.518Z,18.07
2017-12-17T15:38:00.542Z,20.10
2017-12-17T15:40:28.971Z,19.90
2017-12-17T15:42:57.323Z,20.60
2017-12-17T15:45:25.861Z,21.50
2017-12-17T15:47:54.376Z,21.80
2017-12-17T15:50:22.795Z,20.83
2017-12-17T15:52:53.126Z,21.10
2017-12-17T15:55:21.440Z,21.77
2017-12-17T15:57:49.138Z,22.40
2017-12-17T16:00:16.933Z,23.50
2017-12-17T16:02:44.651Z,22.10
2017-12-17T16:05:13.004Z,23.50
2017-12-17T16:07:40.764Z,25.90
2017-12-17T16:10:09.560Z,25.10
2017-12-17T16:12:37.750Z,25.40
2017-12-17T16:15:05.801Z,27.20
2017-12-17T16:17:33.511Z,27.23
2017-12-17T16:20:01.260Z,27.67
2017-12-17T16:22:29.053Z,29.20
2017-12-17T16:24:58.640Z,27.47
2017-12-17T16:27:26.394Z,24.73
2017-12-17T16:29:54.459Z,25.57
2017-12-17T16:32:22.172Z,25.10
2017-12-17T16:34:50.767Z,24.10
2017-12-17T16:37:19.917Z,24.77
2017-12-17T16:39:48.301Z,23.20
2017-12-17T16:42:16.683Z,23.40
2017-12-17T16:44:45.285Z,22.03
2017-12-17T16:47:13.795Z,23.13
2017-12-17T16:49:42.496Z,23.27
2017-12-17T16:52:10.977Z,21.77
2017-12-17T16:54:39.514Z,23.47
2017-12-17T16:57:08.672Z,23.17
2017-12-17T16:59:37.096Z,21.47
2017-12-17T17:02:05.907Z,21.00
2017-12-17T17:04:34.486Z,23.00
2017-12-17T17:07:02.909Z,21.90
2017-12-17T17:09:31.274Z,20.73
2017-12-17T17:11:59.822Z,22.93
2017-12-17T17:14:28.221Z,20.17
2017-12-17T17:16:56.582Z,22.63
2017-12-17T17:19:24.953Z,21.30
2017-12-17T17:21:53.357Z,21.43
2017-12-17T17:24:21.839Z,21.57
2017-12-17T17:26:50.291Z,22.00
2017-12-17T17:29:19.614Z,21.03
2017-12-17T17:31:48.003Z,21.30
2017-12-17T17:34:16.524Z,22.47
2017-12-17T17:36:44.917Z,21.50
2017-12-17T17:39:14.252Z,19.90
2017-12-17T17:41:42.661Z,20.47
2017-12-17T17:44:11.849Z,20.73
2017-12-17T17:46:40.377Z,21.77
2017-12-17T17:49:09.680Z,21.57
2017-12-17T17:51:38.862Z,21.07
2017-12-17T17:54:07.235Z,22.47
2017-12-17T17:56:35.604Z,20.50
2017-12-17T17:59:04.146Z,21.30
2017-12-17T18:01:32.733Z,20.33
2017-12-17T18:04:01.242Z,20.57
2017-12-17T18:06:29.855Z,21.10
2017-12-17T18:08:59.046Z,21.00
2017-12-17T18:11:28.263Z,20.90
2017-12-17T18:13:56.864Z,20.83
2017-12-17T18:16:25.344Z,20.03
2017-12-17T18:18:53.774Z,20.70
2017-12-17T18:21:23.057Z,21.33
2017-12-17T18:23:51.571Z,20.87
2017-12-17T18:26:20.883Z,20.60
2017-12-17T18:28:49.453Z,20.73
2017-12-17T18:31:18.623Z,20.60
2017-12-17T18:33:47.163Z,22.30
2017-12-17T18:36:15.541Z,22.80
2017-12-17T18:38:43.914Z,22.67
2017-12-17T18:41:12.431Z,22.93
2017-12-17T18:43:40.934Z,22.40
2017-12-17T18:46:09.622Z,21.27
2017-12-17T18:48:39.070Z,23.07
2017-12-17T18:51:07.502Z,22.17
2017-12-17T18:53:36.760Z,21.20
2017-12-17T18:56:05.972Z,22.40
2017-12-17T18:58:34.735Z,23.37
2017-12-17T19:01:02.977Z,20.90
2017-12-17T19:03:32.140Z,20.00
2017-12-17T19:06:00.638Z,20.43
2017-12-17T19:08:29.166Z,18.90
2017-12-17T19:10:57.781Z,18.30
2017-12-17T19:13:27.260Z,19.47
2017-12-17T19:15:55.979Z,17.53
2017-12-17T19:18:25.265Z,15.73
2017-12-17T19:20:53.867Z,17.67
2017-12-17T19:23:23.477Z,15.50
2017-12-17T19:25:52.773Z,16.07
2017-12-17T19:28:22.327Z,16.40
2017-12-17T19:30:50.962Z,17.77
2017-12-17T19:33:22.176Z,16.63
2017-12-17T19:35:51.049Z,17.80
2017-12-17T19:38:19.835Z,16.57
2017-12-17T19:40:49.347Z,16.37
2017-12-17T19:43:18.024Z,16.00
2017-12-17T19:45:46.612Z,16.07
2017-12-17T19:48:15.082Z,16.30
2017-12-17T19:50:43.736Z,17.30
2017-12-17T19:53:13.072Z,17.37
2017-12-17T19:55:41.672Z,18.07
2017-12-17T19:58:10.338Z,18.70
2017-12-17T20:00:38.731Z,19.57
2017-12-17T20:03:07.449Z,16.90
2017-12-17T20:05:36.097Z,18.57
2017-12-17T20:08:04.578Z,17.00
2017-12-17T20:10:33.002Z,19.13
2017-12-17T20:13:02.466Z,19.37
2017-12-17T20:15:31.139Z,17.97
2017-12-17T20:17:59.555Z,20.40
2017-12-17T20:20:28.759Z,20.60
2017-12-17T20:22:57.795Z,18.97
2017-12-17T20:25:27.290Z,19.13
2017-12-17T20:27:55.840Z,18.50
2017-12-17T20:30:24.880Z,15.57
2017-12-17T20:32:53.241Z,15.27
2017-12-17T20:35:21.498Z,15.37
2017-12-17T20:37:50.776Z,16.07
2017-12-17T20:40:19.249Z,16.10
2017-12-17T20:42:47.892Z,14.27
2017-12-17T20:45:16.687Z,14.23
2017-12-17T20:47:45.159Z,14.80
2017-12-17T20:50:13.560Z,13.77
2017-12-17T20:52:41.954Z,13.17
2017-12-17T20:55:10.505Z,13.20
2017-12-17T20:57:42.113Z,13.50
2017-12-17T21:00:11.372Z,12.77
2017-12-17T21:02:39.800Z,12.40
2017-12-17T21:05:08.293Z,13.07
2017-12-17T21:07:36.614Z,11.23
2017-12-17T21:10:05.668Z,11.50
2017-12-17T21:12:34.177Z,11.30
2017-12-17T21:15:02.549Z,10.40
2017-12-17T21:17:30.993Z,11.13
2017-12-17T21:20:00.297Z,9.73
2017-12-17T21:22:29.425Z,9.97
2017-12-17T21:24:57.938Z,10.23
2017-12-17T21:27:26.509Z,10.53
2017-12-17T21:29:55.790Z,9.33
2017-12-17T21:32:24.260Z,9.40
2017-12-17T21:34:52.755Z,9.03
2017-12-17T21:37:21.149Z,8.80
2017-12-17T21:39:49.523Z,8.63
2017-12-17T21:42:17.890Z,8.23
2017-12-17T21:44:46.278Z,8.20
2017-12-17T21:47:14.658Z,7.33
2017-12-17T21:49:43.139Z,6.93
2017-12-17T21:52:11.525Z,7.47
2017-12-17T21:54:40.413Z,7.23
2017-12-17T21:57:08.842Z,8.10
2017-12-17T21:59:37.432Z,7.50
2017-12-17T22:02:05.824Z,6.93
2017-12-17T22:04:34.225Z,6.87
2017-12-17T22:07:03.599Z,6.57
2017-12-17T22:09:32.250Z,5.73
2017-12-17T22:12:00.622Z,7.30
2017-12-17T22:14:29.754Z,5.90
2017-12-17T22:16:58.116Z,5.90
2017-12-17T22:19:26.611Z,5.33
2017-12-17T22:21:54.982Z,5.30
2017-12-17T22:24:23.358Z,5.80
2017-12-17T22:26:51.743Z,5.40
2017-12-17T22:29:20.134Z,4.70
2017-12-17T22:31:49.279Z,5.40
2017-12-17T22:34:17.627Z,5.70
2017-12-17T22:36:46.036Z,6.20
2017-12-17T22:39:14.424Z,6.10
2017-12-17T22:41:43.611Z,5.33
2017-12-17T22:44:12.725Z,5.80
2017-12-17T22:46:41.258Z,5.27
2017-12-17T22:49:09.844Z,5.53
2017-12-17T22:51:37.919Z,5.77
2017-12-17T22:54:06.407Z,5.30
2017-12-17T22:56:34.755Z,5.30
2017-12-17T22:59:03.167Z,6.27
2017-12-17T23:01:31.596Z,5.87
2017-12-17T23:03:59.976Z,5.20
2017-12-17T23:06:28.490Z,4.97
2017-12-17T23:08:56.873Z,5.30
2017-12-17T23:11:25.220Z,5.20
2017-12-17T23:13:53.881Z,7.03
2017-12-17T23:16:22.488Z,6.90
2017-12-17T23:18:50.856Z,6.40
2017-12-17T23:21:19.237Z,6.57
2017-12-17T23:23:47.608Z,6.80
2017-12-17T23:26:15.967Z,8.10
2017-12-17T23:28:44.359Z,7.40
2017-12-17T23:31:12.391Z,7.40
2017-12-17T23:33:40.900Z,8.27
2017-12-17T23:36:09.249Z,8.27
2017-12-17T23:38:37.765Z,8.40
2017-12-17T23:41:06.532Z,9.20
2017-12-17T23:43:35.707Z,9.23
2017-12-17T23:46:05.108Z,9.70
2017-12-17T23:48:33.594Z,9.83
2017-12-17T23:51:01.806Z,10.70
2017-12-17T23:53:30.207Z,9.23
2017-12-17T23:55:59.184Z,8.50
2017-12-17T23:58:27.559Z,8.60
